createdAt,value
2022-09-28T00:00:35.608Z,12.04
2022-09-28T00:03:03.268Z,12.00
2022-09-28T00:05:30.943Z,12.03
2022-09-28T00:07:59.938Z,12.04
2022-09-28T00:10:27.547Z,12.04
2022-09-28T00:12:56.260Z,12.05
2022-09-28T00:15:24.652Z,12.05
2022-09-28T00:17:52.207Z,12.02
2022-09-28T00:20:20.454Z,12.00
2022-09-28T00:22:48.267Z,12.05
2022-09-28T00:25:17.694Z,12.04
2022-09-28T00:27:50.910Z,12.06
2022-09-28T00:30:18.495Z,12.00
2022-09-28T00:32:46.114Z,11.99
2022-09-28T00:35:13.716Z,11.97
2022-09-28T00:37:41.299Z,11.98
2022-09-28T00:40:09.643Z,11.98
2022-09-28T00:42:38.628Z,11.92
2022-09-28T00:45:08.647Z,11.97
2022-09-28T00:47:43.503Z,12.02
2022-09-28T00:50:23.840Z,12.01
2022-09-28T00:52:56.747Z,12.00
2022-09-28T00:55:32.614Z,11.98
2022-09-28T00:58:05.007Z,12.01
2022-09-28T01:00:32.923Z,12.03
2022-09-28T01:03:00.686Z,12.04
2022-09-28T01:05:28.662Z,12.02
2022-09-28T01:07:57.683Z,12.02
2022-09-28T01:10:26.020Z,12.04
2022-09-28T01:12:53.639Z,12.00
2022-09-28T01:15:24.647Z,12.02
2022-09-28T01:18:06.087Z,12.00
2022-09-28T01:20:56.125Z,11.98
2022-09-28T01:24:17.852Z,11.99
2022-09-28T01:27:05.801Z,12.05
2022-09-28T01:29:43.733Z,12.06
2022-09-28T01:32:24.932Z,12.00
2022-09-28T01:34:59.499Z,12.07
2022-09-28T01:37:36.630Z,12.14
2022-09-28T01:40:08.121Z,12.17
2022-09-28T01:42:40.557Z,12.18
2022-09-28T01:45:15.609Z,12.16
2022-09-28T01:47:47.085Z,12.24
2022-09-28T01:50:18.393Z,12.21
2022-09-28T01:52:51.422Z,12.18
2022-09-28T01:55:26.870Z,12.18
2022-09-28T01:57:59.228Z,12.14
2022-09-28T02:00:28.766Z,12.15
2022-09-28T02:03:02.884Z,12.18
2022-09-28T02:05:33.902Z,12.29
2022-09-28T02:08:06.704Z,12.33
2022-09-28T02:10:39.587Z,12.37
2022-09-28T02:13:14.542Z,12.47
2022-09-28T02:15:46.788Z,12.49
2022-09-28T02:18:14.593Z,12.50
2022-09-28T02:20:47.728Z,12.56
2022-09-28T02:23:17.271Z,12.65
2022-09-28T02:25:50.000Z,12.53
2022-09-28T02:28:19.086Z,12.56
2022-09-28T02:30:47.044Z,12.58
2022-09-28T02:33:19.651Z,12.59
2022-09-28T02:35:47.855Z,12.60
2022-09-28T02:38:16.513Z,12.71
2022-09-28T02:40:49.085Z,12.77
2022-09-28T02:43:25.605Z,12.84
2022-09-28T02:46:02.207Z,12.93
2022-09-28T02:48:52.255Z,12.88
2022-09-28T02:51:39.324Z,12.90
2022-09-28T02:54:32.026Z,12.86
2022-09-28T02:57:13.088Z,12.85
2022-09-28T02:59:54.708Z,12.84
2022-09-28T03:02:29.164Z,12.79
2022-09-28T03:05:08.348Z,12.80
2022-09-28T03:07:40.210Z,12.82
2022-09-28T03:10:17.613Z,12.76
2022-09-28T03:12:48.182Z,12.74
2022-09-28T03:15:23.404Z,12.77
2022-09-28T03:17:51.105Z,12.85
2022-09-28T03:20:19.224Z,12.84
2022-09-28T03:23:06.077Z,12.81
2022-09-28T03:25:35.226Z,12.81
2022-09-28T03:28:02.881Z,12.80
2022-09-28T03:30:31.846Z,12.78
2022-09-28T03:33:00.155Z,12.72
2022-09-28T03:35:27.810Z,12.73
2022-09-28T03:37:57.000Z,12.78
2022-09-28T03:40:25.054Z,12.81
2022-09-28T03:42:53.912Z,12.85
2022-09-28T03:45:21.646Z,12.83
2022-09-28T03:47:50.608Z,12.82
2022-09-28T03:50:18.206Z,12.81
2022-09-28T03:52:45.796Z,12.74
2022-09-28T03:55:13.494Z,12.72
2022-09-28T03:57:41.076Z,12.70
2022-09-28T04:00:10.178Z,12.67
2022-09-28T04:02:37.837Z,12.69
2022-09-28T04:05:07.385Z,12.74
2022-09-28T04:07:35.011Z,12.76
2022-09-28T04:10:02.679Z,12.79
2022-09-28T04:12:30.289Z,12.75
2022-09-28T04:14:57.878Z,12.77
2022-09-28T04:17:25.553Z,12.73
2022-09-28T04:19:53.146Z,12.69
2022-09-28T04:22:23.283Z,12.73
2022-09-28T04:24:50.878Z,12.80
2022-09-28T04:27:36.297Z,12.75
2022-09-28T04:30:04.823Z,12.70
2022-09-28T04:32:32.537Z,12.74
2022-09-28T04:35:00.220Z,12.73
2022-09-28T04:37:31.276Z,12.70
2022-09-28T04:39:58.907Z,12.80
2022-09-28T04:42:26.500Z,12.76
2022-09-28T04:44:55.395Z,12.80
2022-09-28T04:47:22.926Z,12.85
2022-09-28T04:49:50.518Z,12.72
2022-09-28T04:52:18.749Z,12.68
2022-09-28T04:54:47.850Z,12.66
2022-09-28T04:57:15.484Z,12.64
2022-09-28T04:59:43.042Z,12.62
2022-09-28T05:02:10.764Z,12.64
2022-09-28T05:04:38.363Z,12.59
2022-09-28T05:07:06.167Z,12.63
2022-09-28T05:09:37.676Z,12.64
2022-09-28T05:12:09.344Z,12.64
2022-09-28T05:14:36.918Z,12.57
2022-09-28T05:17:04.531Z,12.54
2022-09-28T05:19:33.404Z,12.60
2022-09-28T05:22:04.010Z,12.70
2022-09-28T05:24:31.867Z,12.59
2022-09-28T05:26:59.472Z,12.59
2022-09-28T05:29:32.080Z,12.59
2022-09-28T05:32:01.684Z,12.55
2022-09-28T05:34:29.627Z,12.52
2022-09-28T05:36:57.260Z,12.54
2022-09-28T05:39:25.045Z,12.57
2022-09-28T05:41:52.687Z,12.58
2022-09-28T05:44:20.261Z,12.61
2022-09-28T05:46:49.222Z,12.60
2022-09-28T05:49:16.820Z,12.62
2022-09-28T05:51:44.506Z,12.63
2022-09-28T05:54:12.289Z,12.58
2022-09-28T05:56:39.850Z,12.65
2022-09-28T05:59:07.518Z,12.64
2022-09-28T06:01:35.227Z,12.67
2022-09-28T06:04:04.252Z,12.73
2022-09-28T06:06:31.893Z,12.68
2022-09-28T06:08:59.514Z,12.66
2022-09-28T06:11:27.776Z,12.65
2022-09-28T06:13:56.297Z,12.74
2022-09-28T06:16:24.170Z,12.82
2022-09-28T06:18:51.761Z,12.88
2022-09-28T06:21:20.696Z,12.89
2022-09-28T06:23:49.413Z,12.92
2022-09-28T06:26:17.778Z,12.94
2022-09-28T06:28:45.492Z,12.96
2022-09-28T06:31:13.267Z,12.86
2022-09-28T06:33:41.982Z,12.88
2022-09-28T06:36:10.397Z,12.96
2022-09-28T06:38:39.369Z,12.94
2022-09-28T06:41:07.298Z,12.95
2022-09-28T06:43:34.974Z,13.02
2022-09-28T06:46:03.397Z,13.02
2022-09-28T06:48:33.433Z,12.99
2022-09-28T06:51:01.802Z,12.99
2022-09-28T06:53:30.392Z,12.99
2022-09-28T06:55:59.833Z,13.05
2022-09-28T06:58:28.158Z,13.11
2022-09-28T07:00:59.532Z,13.23
2022-09-28T07:03:28.159Z,13.30
2022-09-28T07:05:57.553Z,13.24
2022-09-28T07:08:26.431Z,13.27
2022-09-28T07:10:56.414Z,13.24
2022-09-28T07:13:48.785Z,13.28
2022-09-28T07:16:14.444Z,13.28
2022-09-28T07:18:42.266Z,13.21
2022-09-28T07:21:17.768Z,13.31
2022-09-28T07:23:53.870Z,13.37
2022-09-28T07:26:24.335Z,13.32
2022-09-28T07:28:55.882Z,13.40
2022-09-28T07:31:25.182Z,13.37
2022-09-28T07:33:53.838Z,13.46
2022-09-28T07:36:22.652Z,13.50
2022-09-28T07:38:50.407Z,13.55
2022-09-28T07:41:22.521Z,13.59
2022-09-28T07:43:50.849Z,13.57
2022-09-28T07:46:21.745Z,13.62
2022-09-28T07:48:49.834Z,13.62
2022-09-28T07:51:20.597Z,13.64
2022-09-28T07:53:49.020Z,13.71
2022-09-28T07:56:18.209Z,13.81
2022-09-28T07:58:48.566Z,13.86
2022-09-28T08:01:16.997Z,13.89
2022-09-28T08:03:47.849Z,13.99
2022-09-28T08:06:17.621Z,14.07
2022-09-28T08:08:45.564Z,14.18
2022-09-28T08:11:14.616Z,14.21
2022-09-28T08:13:43.533Z,14.22
2022-09-28T08:16:11.223Z,14.16
2022-09-28T08:18:38.911Z,14.16
2022-09-28T08:21:25.560Z,14.17
2022-09-28T08:23:53.813Z,14.21
2022-09-28T08:26:21.674Z,14.26
2022-09-28T08:28:49.260Z,14.35
2022-09-28T08:31:17.025Z,14.47
2022-09-28T08:33:44.713Z,14.65
2022-09-28T08:36:13.687Z,15.09
2022-09-28T08:38:41.266Z,15.42
2022-09-28T08:41:19.927Z,15.89
2022-09-28T08:44:02.467Z,16.43
2022-09-28T08:46:34.599Z,17.82
2022-09-28T08:49:25.654Z,19.79
2022-09-28T08:52:01.882Z,19.89
2022-09-28T08:54:38.957Z,19.39
2022-09-28T08:57:12.122Z,18.47
2022-09-28T08:59:47.801Z,19.95
2022-09-28T09:02:19.898Z,19.63
2022-09-28T09:04:48.084Z,18.83
2022-09-28T09:07:33.239Z,20.99
2022-09-28T09:10:13.669Z,20.98
2022-09-28T09:12:50.974Z,21.86
2022-09-28T09:15:28.495Z,21.79
2022-09-28T09:18:10.814Z,20.85
2022-09-28T09:20:46.650Z,19.68
2022-09-28T09:23:20.267Z,18.56
2022-09-28T09:25:54.810Z,17.80
2022-09-28T09:28:40.140Z,17.18
2022-09-28T09:31:24.128Z,16.90
2022-09-28T09:34:16.029Z,16.86
2022-09-28T09:37:00.510Z,16.51
2022-09-28T09:39:42.196Z,16.18
2022-09-28T09:42:26.918Z,15.90
2022-09-28T09:45:09.432Z,15.66
2022-09-28T09:47:42.954Z,15.53
2022-09-28T09:50:19.648Z,15.52
2022-09-28T09:52:57.176Z,15.61
2022-09-28T09:55:30.251Z,15.97
2022-09-28T09:58:06.018Z,16.05
2022-09-28T10:00:34.753Z,16.15
2022-09-28T10:03:03.234Z,16.16
2022-09-28T10:05:33.297Z,16.11
2022-09-28T10:08:04.418Z,15.99
2022-09-28T10:10:36.487Z,15.94
2022-09-28T10:13:04.765Z,15.92
2022-09-28T10:15:35.228Z,15.88
2022-09-28T10:18:07.554Z,15.95
2022-09-28T10:20:39.872Z,16.07
2022-09-28T10:23:14.435Z,16.14
2022-09-28T10:25:47.066Z,16.23
2022-09-28T10:28:20.286Z,16.55
2022-09-28T10:30:48.034Z,16.71
2022-09-28T10:33:36.499Z,16.72
2022-09-28T10:36:08.361Z,16.73
2022-09-28T10:38:36.309Z,16.64
2022-09-28T10:41:11.230Z,16.69
2022-09-28T10:43:40.798Z,17.00
2022-09-28T10:46:10.681Z,17.16
2022-09-28T10:48:51.337Z,17.06
2022-09-28T10:51:19.285Z,16.83
2022-09-28T10:54:00.421Z,16.60
2022-09-28T10:56:32.762Z,16.55
2022-09-28T10:59:00.371Z,16.64
2022-09-28T11:01:34.686Z,16.77
2022-09-28T11:04:04.092Z,16.76
2022-09-28T11:06:36.741Z,16.72
2022-09-28T11:09:06.860Z,16.59
2022-09-28T11:11:43.029Z,16.41
2022-09-28T11:14:27.183Z,16.25
2022-09-28T11:17:16.436Z,16.02
2022-09-28T11:19:44.489Z,15.89
2022-09-28T11:22:22.552Z,15.78
2022-09-28T11:24:50.537Z,15.67
2022-09-28T11:27:25.046Z,15.62
2022-09-28T11:29:58.071Z,15.51
2022-09-28T11:32:29.638Z,15.45
2022-09-28T11:37:54.552Z,15.37
2022-09-28T11:40:30.457Z,15.35
2022-09-28T11:43:12.253Z,15.41
2022-09-28T11:45:52.893Z,15.46
2022-09-28T11:48:26.514Z,15.53
2022-09-28T11:50:59.379Z,15.58
2022-09-28T11:53:34.252Z,15.67
2022-09-28T11:56:09.737Z,15.68
2022-09-28T11:58:43.948Z,15.72
2022-09-28T12:01:23.511Z,15.75
2022-09-28T12:03:55.956Z,15.77
2022-09-28T12:06:31.109Z,15.78
2022-09-28T12:09:09.250Z,15.77
2022-09-28T12:11:40.122Z,15.72
2022-09-28T12:14:19.734Z,15.73
2022-09-28T12:17:06.029Z,15.76
2022-09-28T12:19:39.789Z,15.82
2022-09-28T12:22:18.178Z,16.10
2022-09-28T12:24:48.479Z,16.46
2022-09-28T12:27:22.530Z,16.71
2022-09-28T12:29:58.685Z,16.91
2022-09-28T12:32:32.377Z,16.93
2022-09-28T12:34:59.986Z,16.77
2022-09-28T12:37:45.378Z,16.76
2022-09-28T12:40:33.626Z,16.92
2022-09-28T12:43:20.069Z,17.00
2022-09-28T12:46:12.672Z,16.90
2022-09-28T12:49:36.781Z,16.83
2022-09-28T12:51:49.489Z,16.77
2022-09-28T12:54:53.201Z,16.72
2022-09-28T12:57:37.034Z,16.68
2022-09-28T13:00:10.091Z,16.61
2022-09-28T13:03:19.034Z,16.59
2022-09-28T13:06:16.771Z,16.67
2022-09-28T13:08:55.218Z,16.71
2022-09-28T13:11:33.077Z,16.71
2022-09-28T13:14:20.825Z,16.72
2022-09-28T13:17:00.404Z,16.67
2022-09-28T13:19:38.345Z,16.63
2022-09-28T13:22:19.339Z,16.55
2022-09-28T13:24:48.288Z,16.54
2022-09-28T13:27:19.963Z,16.46
2022-09-28T13:29:51.130Z,16.43
2022-09-28T13:32:19.736Z,16.34
2022-09-28T13:34:51.455Z,16.36
2022-09-28T13:37:24.150Z,16.27
2022-09-28T13:39:55.080Z,16.19
2022-09-28T13:42:41.700Z,16.09
2022-09-28T13:45:39.012Z,15.98
2022-09-28T13:48:16.934Z,15.93
2022-09-28T13:51:03.719Z,15.89
2022-09-28T13:53:43.621Z,15.81
2022-09-28T13:56:25.459Z,15.80
2022-09-28T13:58:59.497Z,15.81
2022-09-28T14:01:31.377Z,15.83
2022-09-28T14:04:14.811Z,15.84
2022-09-28T14:06:48.725Z,15.93
2022-09-28T14:09:43.580Z,16.03
2022-09-28T14:12:45.128Z,16.12
2022-09-28T14:15:42.548Z,16.24
2022-09-28T14:18:24.467Z,16.37
2022-09-28T14:21:04.016Z,16.49
2022-09-28T14:23:58.990Z,16.60
2022-09-28T14:26:59.863Z,16.58
2022-09-28T14:29:29.385Z,16.56
2022-09-28T14:31:58.663Z,16.55
2022-09-28T14:34:35.125Z,16.47
2022-09-28T14:37:22.472Z,16.45
2022-09-28T14:40:09.490Z,16.37
2022-09-28T14:42:37.162Z,16.32
2022-09-28T14:45:38.257Z,16.34
2022-09-28T14:48:15.238Z,16.41
2022-09-28T14:50:42.983Z,16.40
2022-09-28T14:53:13.965Z,16.38
2022-09-28T14:55:51.294Z,16.35
2022-09-28T14:58:22.602Z,16.31
2022-09-28T15:01:03.673Z,16.27
2022-09-28T15:03:34.457Z,16.22
2022-09-28T15:06:02.695Z,16.18
2022-09-28T15:08:38.771Z,16.15
2022-09-28T15:11:14.658Z,16.11
2022-09-28T15:13:43.494Z,16.07
2022-09-28T15:16:14.015Z,16.00
2022-09-28T15:19:13.306Z,15.99
2022-09-28T15:21:43.313Z,15.98
2022-09-28T15:24:25.755Z,15.98
2022-09-28T15:26:54.952Z,15.93
2022-09-28T15:29:23.849Z,15.94
2022-09-28T15:31:54.501Z,15.93
2022-09-28T15:34:48.351Z,15.88
2022-09-28T15:37:22.074Z,15.86
2022-09-28T15:39:51.363Z,15.82
2022-09-28T15:42:20.783Z,15.85
2022-09-28T15:45:08.145Z,15.88
2022-09-28T15:47:40.049Z,15.85
2022-09-28T15:50:20.859Z,15.81
2022-09-28T15:52:56.299Z,15.80
2022-09-28T15:55:27.840Z,15.77
2022-09-28T15:58:18.179Z,15.76
2022-09-28T16:00:47.073Z,15.72
2022-09-28T16:03:23.954Z,15.73
2022-09-28T16:05:53.577Z,15.74
2022-09-28T16:08:24.747Z,15.70
2022-09-28T16:11:04.009Z,15.68
2022-09-28T16:13:34.135Z,15.66
2022-09-28T16:16:02.252Z,15.65
2022-09-28T16:18:31.105Z,15.62
2022-09-28T16:21:24.204Z,15.60
2022-09-28T16:23:52.859Z,15.55
2022-09-28T16:26:32.098Z,15.58
2022-09-28T16:29:06.818Z,15.58
2022-09-28T16:31:34.689Z,15.57
2022-09-28T16:34:11.864Z,15.57
2022-09-28T16:36:45.403Z,15.55
2022-09-28T16:39:14.121Z,15.54
2022-09-28T16:41:44.740Z,15.52
2022-09-28T16:44:20.351Z,15.53
2022-09-28T16:46:48.181Z,15.53
2022-09-28T16:49:20.684Z,15.53
2022-09-28T16:51:48.832Z,15.48
2022-09-28T16:54:36.486Z,15.47
2022-09-28T16:57:06.092Z,15.47
2022-09-28T16:59:38.370Z,15.47
2022-09-28T17:02:35.282Z,15.41
2022-09-28T17:05:07.015Z,15.35
2022-09-28T17:07:34.990Z,15.34
2022-09-28T17:10:03.928Z,15.32
2022-09-28T17:12:31.795Z,15.26
2022-09-28T17:15:01.036Z,15.27
2022-09-28T17:17:31.307Z,15.29
2022-09-28T17:19:58.976Z,15.29
2022-09-28T17:22:26.650Z,15.28
2022-09-28T17:24:54.215Z,15.25
2022-09-28T17:27:21.980Z,15.21
2022-09-28T17:29:49.589Z,15.18
2022-09-28T17:32:20.143Z,15.13
2022-09-28T17:34:55.973Z,15.09
2022-09-28T17:37:36.084Z,15.00
2022-09-28T17:40:03.687Z,14.94
2022-09-28T17:42:31.246Z,14.89
2022-09-28T17:44:58.836Z,14.82
2022-09-28T17:47:31.005Z,14.71
2022-09-28T17:50:01.714Z,14.66
2022-09-28T17:52:29.367Z,14.62
2022-09-28T17:54:56.976Z,14.60
2022-09-28T17:57:24.543Z,14.56
2022-09-28T17:59:52.153Z,14.54
2022-09-28T18:02:19.933Z,14.49
2022-09-28T18:04:52.065Z,14.43
2022-09-28T18:07:20.000Z,14.41
2022-09-28T18:09:47.633Z,14.40
2022-09-28T18:12:16.984Z,14.36
2022-09-28T18:14:44.618Z,14.37
2022-09-28T18:17:12.159Z,14.34
2022-09-28T18:19:39.720Z,14.28
2022-09-28T18:22:08.765Z,14.27
2022-09-28T18:24:36.329Z,14.25
2022-09-28T18:27:03.930Z,14.30
2022-09-28T18:29:33.535Z,14.32
2022-09-28T18:32:02.371Z,14.41
2022-09-28T18:34:29.914Z,14.49
2022-09-28T18:36:57.528Z,14.52
2022-09-28T18:39:26.643Z,14.47
2022-09-28T18:41:54.278Z,14.46
2022-09-28T18:44:22.088Z,14.44
2022-09-28T18:46:51.446Z,14.35
2022-09-28T18:49:19.158Z,14.37
2022-09-28T18:51:46.851Z,14.29
2022-09-28T18:54:17.430Z,14.24
2022-09-28T18:56:46.462Z,14.24
2022-09-28T18:59:14.851Z,14.23
2022-09-28T19:01:43.217Z,14.28
2022-09-28T19:04:11.877Z,14.23
2022-09-28T19:06:41.454Z,14.15
2022-09-28T19:09:09.609Z,14.11
2022-09-28T19:11:37.438Z,14.08
2022-09-28T19:14:06.459Z,14.08
2022-09-28T19:16:34.595Z,14.10
2022-09-28T19:19:03.031Z,14.13
2022-09-28T19:21:34.812Z,14.12
2022-09-28T19:24:03.944Z,14.15
2022-09-28T19:26:32.994Z,14.15
2022-09-28T19:29:02.080Z,14.18
2022-09-28T19:31:31.654Z,14.28
2022-09-28T19:33:59.848Z,14.35
2022-09-28T19:36:29.370Z,14.40
2022-09-28T19:38:58.467Z,14.42
2022-09-28T19:41:44.915Z,14.30
2022-09-28T19:44:15.565Z,14.24
2022-09-28T19:46:44.888Z,14.27
2022-09-28T19:49:13.847Z,14.28
2022-09-28T19:52:01.721Z,14.25
2022-09-28T19:54:36.304Z,14.23
2022-09-28T19:57:07.322Z,14.10
2022-09-28T19:59:35.610Z,14.04
2022-09-28T20:02:05.088Z,13.90
2022-09-28T20:04:32.646Z,13.91
2022-09-28T20:07:00.309Z,13.88
2022-09-28T20:09:27.880Z,13.91
2022-09-28T20:11:55.494Z,13.94
2022-09-28T20:14:24.665Z,13.83
2022-09-28T20:16:55.843Z,13.71
2022-09-28T20:19:24.797Z,13.68
2022-09-28T20:21:52.363Z,13.67
2022-09-28T20:24:19.923Z,13.78
2022-09-28T20:26:49.500Z,13.72
2022-09-28T20:29:17.435Z,13.69
2022-09-28T20:31:45.572Z,13.64
2022-09-28T20:34:13.253Z,13.65
2022-09-28T20:36:44.596Z,13.73
2022-09-28T20:39:13.128Z,13.71
2022-09-28T20:41:41.131Z,13.65
2022-09-28T20:44:09.539Z,13.62
2022-09-28T20:46:37.300Z,13.64
2022-09-28T20:49:07.035Z,13.65
2022-09-28T20:51:34.669Z,13.62
2022-09-28T20:54:03.607Z,13.58
2022-09-28T20:56:37.443Z,13.55
2022-09-28T20:59:05.777Z,13.48
2022-09-28T21:01:33.616Z,13.39
2022-09-28T21:04:03.085Z,13.35
2022-09-28T21:06:33.177Z,13.30
2022-09-28T21:09:00.806Z,13.29
2022-09-28T21:11:30.590Z,13.25
2022-09-28T21:13:59.866Z,13.29
2022-09-28T21:16:30.106Z,13.33
2022-09-28T21:18:58.352Z,13.27
2022-09-28T21:21:26.761Z,13.18
2022-09-28T21:23:54.591Z,13.15
2022-09-28T21:26:25.581Z,13.10
2022-09-28T21:28:55.524Z,13.08
2022-09-28T21:31:29.065Z,13.12
2022-09-28T21:33:57.601Z,13.10
2022-09-28T21:36:25.498Z,13.10
2022-09-28T21:38:54.156Z,13.21
2022-09-28T21:41:21.887Z,13.30
2022-09-28T21:43:49.449Z,13.24
2022-09-28T21:46:18.560Z,13.30
2022-09-28T21:48:46.312Z,13.35
2022-09-28T21:51:15.626Z,13.38
2022-09-28T21:53:43.563Z,13.38
2022-09-28T21:56:13.571Z,13.44
2022-09-28T21:58:41.576Z,13.41
2022-09-28T22:01:12.062Z,13.32
2022-09-28T22:03:42.082Z,13.31
2022-09-28T22:06:10.094Z,13.36
2022-09-28T22:08:38.286Z,13.41
2022-09-28T22:11:07.763Z,13.34
2022-09-28T22:13:36.877Z,13.34
2022-09-28T22:16:04.520Z,13.24
2022-09-28T22:18:33.971Z,13.27
2022-09-28T22:21:06.424Z,13.25
2022-09-28T22:23:35.210Z,13.23
2022-09-28T22:26:05.107Z,13.28
2022-09-28T22:28:32.765Z,13.13
2022-09-28T22:31:01.929Z,13.09
2022-09-28T22:33:29.542Z,13.04
2022-09-28T22:35:57.277Z,12.95
2022-09-28T22:38:26.197Z,12.96
2022-09-28T22:40:56.220Z,12.90
2022-09-28T22:43:25.059Z,12.86
2022-09-28T22:46:01.948Z,12.92
2022-09-28T22:48:29.723Z,13.07
2022-09-28T22:50:57.285Z,13.01
2022-09-28T22:53:26.759Z,13.01
2022-09-28T22:55:54.353Z,13.05
2022-09-28T22:58:22.123Z,12.95
2022-09-28T23:00:49.738Z,12.82
2022-09-28T23:03:18.055Z,12.71
2022-09-28T23:05:53.936Z,12.76
2022-09-28T23:08:21.751Z,12.67
2022-09-28T23:10:51.360Z,12.56
2022-09-28T23:13:19.383Z,12.53
2022-09-28T23:15:55.959Z,12.57
2022-09-28T23:18:23.698Z,12.64
2022-09-28T23:20:55.059Z,12.56
2022-09-28T23:23:23.536Z,12.57
2022-09-28T23:25:53.540Z,12.63
2022-09-28T23:28:22.257Z,12.76
2022-09-28T23:30:50.433Z,12.78
2022-09-28T23:33:20.267Z,12.58
2022-09-28T23:35:48.031Z,12.43
2022-09-28T23:38:18.655Z,12.54
2022-09-28T23:40:47.298Z,12.51
2022-09-28T23:43:16.384Z,12.53
2022-09-28T23:45:44.531Z,12.64
2022-09-28T23:48:14.984Z,12.67
2022-09-28T23:50:43.155Z,12.74
2022-09-28T23:53:11.731Z,12.75
2022-09-28T23:55:39.306Z,12.71
2022-09-28T23:58:07.245Z,12.74
